Time;durP1;ratioP1;P1;durP2;ratioP2;P2;SDS_P1;SDS_P2;PMS_P1;PMS_P2;Temp;Humidity;BMP_temperature;BMP_pressure;BME280_temperature;BME280_humidity;BME280_pressure;Samples;Min_cycle;Max_cycle;Signal;HPM_P1;HPM_P2
2024/03/01 00:00:28;;;;;;;1.65;0.47;;;22.40;40.70;;;;;;5076068;28;20024;-41
2024/03/01 00:02:54;;;;;;;0.80;0.47;;;22.40;40.80;;;;;;5068658;28;20028;-40
2024/03/01 00:05:21;;;;;;;0.98;0.40;;;22.40;40.90;;;;;;5070322;28;20064;-40
2024/03/01 00:07:47;;;;;;;0.60;0.50;;;22.40;40.80;;;;;;5066023;28;20045;-39
2024/03/01 00:10:13;;;;;;;0.45;0.40;;;22.40;40.70;;;;;;5067183;28;20029;-40
2024/03/01 00:12:39;;;;;;;0.60;0.47;;;22.40;40.70;;;;;;5068748;28;20417;-40
2024/03/01 00:15:06;;;;;;;1.33;0.50;;;22.30;40.70;;;;;;5069391;28;20051;-39
2024/03/01 00:17:32;;;;;;;1.45;0.30;;;22.40;40.70;;;;;;5074428;28;20031;-40
2024/03/01 00:19:58;;;;;;;0.77;0.45;;;22.40;40.90;;;;;;5069787;28;20127;-40
2024/03/01 00:22:24;;;;;;;0.80;0.50;;;22.40;40.90;;;;;;5073387;28;20031;-40
2024/03/01 00:24:50;;;;;;;0.88;0.40;;;22.40;40.90;;;;;;5074848;28;20044;-39
2024/03/01 00:27:17;;;;;;;0.50;0.40;;;22.40;40.90;;;;;;5070821;28;20029;-43
2024/03/01 00:29:43;;;;;;;0.67;0.50;;;22.30;40.80;;;;;;5065767;28;20035;-40
2024/03/01 00:32:09;;;;;;;1.00;0.60;;;22.30;40.80;;;;;;5069306;28;20067;-40
2024/03/01 00:34:35;;;;;;;0.45;0.38;;;22.40;40.80;;;;;;5069080;28;20048;-40
2024/03/01 00:37:01;;;;;;;0.70;0.40;;;22.40;40.90;;;;;;5070705;28;20036;-37
2024/03/01 00:39:27;;;;;;;0.52;0.30;;;22.40;40.90;;;;;;5069285;28;20120;-41
2024/03/01 00:41:53;;;;;;;0.80;0.50;;;22.40;40.90;;;;;;5069114;28;20058;-41
2024/03/01 00:44:21;;;;;;;0.95;0.32;;;22.30;40.90;;;;;;5074412;28;22248;-40
2024/03/01 00:46:46;;;;;;;;;;;22.30;40.90;;;;;;5083789;28;20047;-41
2024/03/01 00:49:13;;;;;;;0.90;0.40;;;22.30;40.80;;;;;;5083097;28;20369;-41
2024/03/01 00:51:39;;;;;;;0.30;0.30;;;22.30;40.80;;;;;;5083341;28;20035;-39
2024/03/01 00:54:05;;;;;;;1.00;0.30;;;22.30;40.90;;;;;;5083614;28;20104;-44
2024/03/01 00:56:31;;;;;;;0.43;0.32;;;22.30;40.80;;;;;;5083646;28;20084;-41
2024/03/01 00:58:57;;;;;;;0.63;0.32;;;22.30;40.80;;;;;;5083476;28;20046;-41
2024/03/01 01:01:44;;;;;;;1.08;0.40;;;22.30;40.80;;;;;;5082878;28;20048;-41
2024/03/01 01:04:10;;;;;;;0.40;0.40;;;22.30;40.70;;;;;;4981314;28;20047;-40
2024/03/01 01:06:36;;;;;;;0.70;0.43;;;22.30;40.80;;;;;;4981925;28;20037;-41
2024/03/01 01:09:02;;;;;;;0.35;0.30;;;22.30;40.80;;;;;;4981310;28;20051;-41
2024/03/01 01:11:29;;;;;;;0.33;0.30;;;22.30;40.90;;;;;;4981907;28;20095;-41
2024/03/01 01:13:56;;;;;;;0.45;0.22;;;22.30;40.80;;;;;;4981697;28;20022;-41
2024/03/01 01:16:23;;;;;;;0.55;0.40;;;22.30;40.70;;;;;;4981330;28;20035;-39
2024/03/01 01:18:49;;;;;;;0.52;0.30;;;22.20;40.60;;;;;;4965712;28;20065;-41
2024/03/01 01:21:15;;;;;;;0.82;0.47;;;22.20;40.70;;;;;;4980889;28;20533;-41
2024/03/01 01:23:41;;;;;;;0.40;0.30;;;22.30;40.80;;;;;;4981330;28;20099;-41
2024/03/01 01:26:07;;;;;;;0.30;0.20;;;22.30;40.80;;;;;;4981590;28;20031;-39
2024/03/01 01:28:34;;;;;;;0.33;0.30;;;22.30;40.90;;;;;;4974663;28;20035;-41
2024/03/01 01:31:00;;;;;;;1.00;0.40;;;22.30;40.90;;;;;;4972683;28;20035;-36
2024/03/01 01:33:26;;;;;;;0.40;0.40;;;22.20;40.80;;;;;;4980756;28;20126;-41
2024/03/01 01:35:52;;;;;;;0.52;0.38;;;22.20;40.70;;;;;;4979007;28;20045;-39
2024/03/01 01:38:19;;;;;;;0.63;0.30;;;22.20;40.80;;;;;;4980971;28;20031;-41
2024/03/01 01:40:45;;;;;;;0.40;0.30;;;22.20;40.80;;;;;;5004985;28;20296;-41
2024/03/01 01:43:11;;;;;;;0.43;0.30;;;22.30;41.00;;;;;;5061458;28;20548;-41
2024/03/01 01:45:37;;;;;;;0.50;0.40;;;22.30;41.10;;;;;;5062711;28;20033;-46
2024/03/01 01:48:04;;;;;;;0.63;0.40;;;22.20;41.00;;;;;;5054143;28;20078;-38
2024/03/01 01:50:31;;;;;;;0.40;0.30;;;22.20;41.00;;;;;;5062628;28;20050;-41
2024/03/01 01:52:57;;;;;;;0.68;0.40;;;22.20;40.90;;;;;;5059557;28;20093;-40
2024/03/01 01:55:23;;;;;;;0.38;0.30;;;22.20;40.90;;;;;;5061844;28;20036;-41
2024/03/01 01:57:50;;;;;;;0.50;0.20;;;22.20;41.00;;;;;;5059758;28;20020;-42
2024/03/01 02:00:16;;;;;;;0.63;0.30;;;22.30;41.10;;;;;;5043573;28;20033;-41
2024/03/01 02:02:43;;;;;;;3.75;0.40;;;22.20;41.10;;;;;;5059495;28;20072;-40
2024/03/01 02:05:09;;;;;;;0.75;0.40;;;22.20;41.10;;;;;;5057579;28;20507;-40
2024/03/01 02:07:38;;;;;;;0.23;0.17;;;22.20;41.00;;;;;;5051236;28;20033;-37
2024/03/01 02:10:17;;;;;;;0.40;0.30;;;22.20;41.00;;;;;;5060773;28;20106;-41
2024/03/01 02:12:56;;;;;;;1.20;0.40;;;22.20;41.10;;;;;;5056040;28;20032;-39
2024/03/01 02:15:26;;;;;;;0.95;0.40;;;22.20;41.20;;;;;;5061667;28;20024;-41
2024/03/01 02:17:57;;;;;;;0.85;0.30;;;22.20;41.30;;;;;;5062200;28;20031;-41
2024/03/01 02:20:25;;;;;;;0.50;0.30;;;22.20;41.20;;;;;;5061845;28;20032;-41
2024/03/01 02:23:00;;;;;;;0.57;0.20;;;22.20;41.10;;;;;;5043970;28;20028;-41
2024/03/01 02:25:26;;;;;;;0.40;0.22;;;22.20;41.10;;;;;;5061045;28;20036;-40
2024/03/01 02:27:52;;;;;;;0.40;0.28;;;22.20;41.20;;;;;;5062189;28;20029;-41
2024/03/01 02:30:18;;;;;;;0.57;0.30;;;22.20;41.30;;;;;;5061357;28;20461;-39
2024/03/01 02:32:46;;;;;;;0.35;0.20;;;22.20;41.30;;;;;;5058688;28;20051;-41
2024/03/01 02:35:12;;;;;;;;;;;22.20;41.40;;;;;;5058591;28;20032;-42
2024/03/01 02:37:38;;;;;;;0.38;0.20;;;22.20;41.40;;;;;;5061929;28;19955;-39
2024/03/01 02:40:05;;;;;;;0.30;0.30;;;22.20;41.30;;;;;;5061161;28;20145;-41
2024/03/01 02:42:32;;;;;;;0.70;0.30;;;22.10;41.20;;;;;;5060648;28;20139;-41
2024/03/01 02:44:59;;;;;;;0.68;0.30;;;22.10;41.40;;;;;;5061156;28;20113;-41
2024/03/01 02:47:25;;;;;;;0.30;0.30;;;22.20;41.50;;;;;;5061376;28;20021;-41
2024/03/01 02:49:52;;;;;;;0.20;0.20;;;22.20;41.50;;;;;;5061521;28;20037;-41
2024/03/01 02:52:18;;;;;;;0.20;0.20;;;22.20;41.50;;;;;;5060816;28;20504;-39
2024/03/01 02:54:44;;;;;;;0.30;0.22;;;22.20;41.50;;;;;;5061924;28;20040;-41
2024/03/01 02:57:10;;;;;;;0.28;0.20;;;22.10;41.40;;;;;;5061135;28;20024;-41
2024/03/01 02:59:36;;;;;;;0.30;0.30;;;22.10;41.40;;;;;;5061591;28;20025;-42
2024/03/01 03:02:02;;;;;;;1.05;0.25;;;22.10;41.40;;;;;;5060988;28;20036;-38
2024/03/01 03:04:28;;;;;;;0.38;0.28;;;22.20;41.50;;;;;;5058296;28;20052;-41
2024/03/01 03:06:56;;;;;;;0.82;0.32;;;22.20;41.60;;;;;;5061613;28;20048;-41
2024/03/01 03:09:22;;;;;;;0.25;0.25;;;22.20;41.50;;;;;;5061433;28;20025;-41
2024/03/01 03:11:48;;;;;;;0.40;0.32;;;22.20;41.50;;;;;;5056897;28;20029;-40
2024/03/01 03:14:15;;;;;;;0.35;0.20;;;22.10;41.40;;;;;;5064951;28;20093;-41
2024/03/01 03:16:42;;;;;;;0.32;0.28;;;22.10;41.50;;;;;;5065752;28;20033;-40
2024/03/01 03:19:08;;;;;;;0.30;0.30;;;22.10;41.50;;;;;;5047796;28;20040;-41
2024/03/01 03:21:35;;;;;;;0.40;0.30;;;22.20;41.60;;;;;;5065690;28;20051;-40
2024/03/01 03:24:01;;;;;;;0.50;0.40;;;22.20;41.60;;;;;;5058203;28;20172;-39
2024/03/01 03:26:27;;;;;;;0.22;0.20;;;22.20;41.50;;;;;;5065008;28;20039;-42
2024/03/01 03:28:54;;;;;;;0.35;0.25;;;22.10;41.50;;;;;;5065238;28;20028;-42
2024/03/01 03:31:21;;;;;;;0.60;0.40;;;22.10;41.50;;;;;;5065519;28;20024;-42
2024/03/01 03:33:47;;;;;;;0.45;0.25;;;22.10;41.50;;;;;;5063820;28;20092;-39
2024/03/01 03:36:13;;;;;;;0.52;0.25;;;22.10;41.50;;;;;;5063884;28;20021;-40
2024/03/01 03:38:39;;;;;;;0.32;0.30;;;22.10;41.50;;;;;;5065139;28;20032;-41
2024/03/01 03:41:06;;;;;;;0.40;0.40;;;22.10;41.60;;;;;;5062505;28;20025;-41
2024/03/01 03:43:32;;;;;;;0.65;0.40;;;22.10;41.50;;;;;;5064596;28;20095;-41
2024/03/01 03:45:58;;;;;;;0.30;0.30;;;22.10;41.50;;;;;;5065125;28;20055;-41
2024/03/01 03:48:24;;;;;;;0.35;0.35;;;22.10;41.40;;;;;;5064583;28;20094;-44
2024/03/01 03:50:51;;;;;;;0.45;0.30;;;22.10;41.50;;;;;;5065174;28;20031;-42
2024/03/01 03:53:17;;;;;;;0.20;0.20;;;22.10;41.50;;;;;;5043733;28;20558;-41
2024/03/01 03:55:44;;;;;;;0.50;0.30;;;22.20;41.50;;;;;;5065207;28;20025;-41
2024/03/01 03:58:10;;;;;;;0.40;0.30;;;22.10;41.50;;;;;;5063927;28;20044;-41
2024/03/01 04:00:36;;;;;;;0.35;0.30;;;22.10;41.40;;;;;;5056467;28;20088;-40
2024/03/01 04:03:03;;;;;;;0.40;0.32;;;22.10;41.40;;;;;;5045222;28;20458;-41
2024/03/01 04:05:29;;;;;;;0.45;0.40;;;22.00;41.30;;;;;;5060941;28;20043;-41
2024/03/01 04:07:55;;;;;;;0.82;0.43;;;22.10;41.30;;;;;;5078697;28;20040;-41
2024/03/01 04:10:22;;;;;;;0.40;0.30;;;22.10;41.30;;;;;;5080918;28;20054;-41
2024/03/01 04:12:48;;;;;;;0.90;0.30;;;22.10;41.30;;;;;;5081298;28;20037;-40
2024/03/01 04:15:15;;;;;;;0.75;0.35;;;22.10;41.40;;;;;;5081218;28;20036;-41
2024/03/01 04:17:41;;;;;;;0.52;0.30;;;22.10;41.10;;;;;;5083678;28;20586;-42
2024/03/01 04:20:08;;;;;;;1.88;0.38;;;22.00;41.20;;;;;;5082913;28;20044;-44
2024/03/01 04:22:34;;;;;;;0.95;0.40;;;22.00;41.20;;;;;;5076026;28;20036;-42
2024/03/01 04:25:00;;;;;;;1.33;0.40;;;22.10;41.10;;;;;;5082266;28;20041;-40
2024/03/01 04:27:27;;;;;;;0.57;0.40;;;22.10;41.20;;;;;;5075880;28;20756;-41
2024/03/01 04:29:53;;;;;;;1.73;0.50;;;22.10;41.20;;;;;;5084303;28;20036;-41
2024/03/01 04:32:19;;;;;;;0.50;0.47;;;22.10;41.20;;;;;;5077763;28;20088;-41
2024/03/01 04:34:45;;;;;;;0.38;0.38;;;22.10;41.20;;;;;;5076885;28;20067;-41
2024/03/01 04:37:14;;;;;;;3.78;0.40;;;22.10;41.10;;;;;;5072549;28;20503;-38
2024/03/01 04:39:41;;;;;;;1.08;0.40;;;22.10;41.30;;;;;;5076307;28;20028;-41
2024/03/01 04:42:08;;;;;;;0.60;0.35;;;22.20;41.30;;;;;;5061982;28;20032;-41
2024/03/01 04:44:34;;;;;;;0.65;0.30;;;22.20;41.30;;;;;;5076624;28;20037;-40
2024/03/01 04:47:01;;;;;;;1.10;0.38;;;22.10;41.20;;;;;;5077629;28;20469;-39
2024/03/01 04:49:27;;;;;;;1.15;0.40;;;22.10;41.10;;;;;;5081727;28;20037;-38
2024/03/01 04:51:53;;;;;;;0.70;0.52;;;22.10;41.10;;;;;;5079777;28;20035;-41
2024/03/01 04:54:19;;;;;;;0.55;0.47;;;22.10;41.10;;;;;;5082717;28;20067;-39
2024/03/01 04:56:45;;;;;;;0.30;0.30;;;22.10;41.20;;;;;;5083810;28;20084;-39
2024/03/01 04:59:11;;;;;;;0.57;0.30;;;22.10;41.10;;;;;;5082371;28;20117;-40
2024/03/01 05:01:40;;;;;;;0.47;0.32;;;22.10;41.20;;;;;;5082364;28;20016;-39
2024/03/01 05:04:09;;;;;;;0.80;0.40;;;22.10;41.10;;;;;;5076140;28;20572;-38
2024/03/01 05:06:39;;;;;;;0.70;0.30;;;22.10;41.20;;;;;;5076067;28;20044;-41
2024/03/01 05:09:07;;;;;;;0.45;0.32;;;22.10;41.10;;;;;;5082123;28;20039;-40
2024/03/01 05:11:35;;;;;;;0.70;0.55;;;22.10;41.20;;;;;;5082524;28;20134;-40
2024/03/01 05:14:03;;;;;;;0.68;0.40;;;22.10;41.20;;;;;;5077909;28;20044;-38
2024/03/01 05:16:29;;;;;;;0.30;0.30;;;22.10;41.20;;;;;;5082942;28;20032;-39
2024/03/01 05:18:55;;;;;;;0.30;0.30;;;22.10;41.20;;;;;;5081820;28;20111;-40
2024/03/01 05:21:22;;;;;;;0.70;0.40;;;22.10;41.10;;;;;;5081797;28;20050;-40
2024/03/01 05:23:51;;;;;;;0.73;0.47;;;22.10;41.20;;;;;;5081795;28;20048;-40
2024/03/01 05:26:17;;;;;;;0.30;0.30;;;22.10;41.20;;;;;;5081200;28;20036;-41
2024/03/01 05:28:43;;;;;;;0.40;0.40;;;22.10;41.30;;;;;;5075960;28;20029;-41
2024/03/01 05:31:10;;;;;;;0.80;0.45;;;22.10;41.30;;;;;;5081124;28;20024;-39
2024/03/01 05:33:36;;;;;;;1.10;0.60;;;22.10;41.20;;;;;;5081360;28;20093;-39
2024/03/01 05:36:05;;;;;;;0.50;0.40;;;22.10;41.20;;;;;;5079122;28;20084;-36
2024/03/01 05:38:33;;;;;;;0.57;0.50;;;22.00;41.10;;;;;;5081901;28;20032;-40
2024/03/01 05:41:00;;;;;;;0.60;0.30;;;22.10;41.20;;;;;;5081880;28;20058;-39
2024/03/01 05:43:26;;;;;;;0.68;0.47;;;22.10;41.30;;;;;;5079678;28;20036;-40
2024/03/01 05:45:52;;;;;;;0.70;0.50;;;22.10;41.30;;;;;;5076853;28;20032;-37
2024/03/01 05:48:18;;;;;;;0.88;0.30;;;22.10;41.20;;;;;;5076440;28;20068;-40
2024/03/01 05:50:44;;;;;;;0.70;0.40;;;22.10;41.20;;;;;;5079729;28;20024;-39
2024/03/01 05:53:14;;;;;;;0.63;0.50;;;22.00;41.10;;;;;;5063151;28;20024;-40
2024/03/01 05:55:43;;;;;;;0.68;0.43;;;22.10;41.20;;;;;;5082126;28;20024;-39
2024/03/01 05:58:10;;;;;;;1.80;0.55;;;22.10;41.20;;;;;;5081302;28;20036;-40
2024/03/01 06:00:39;;;;;;;1.27;0.65;;;22.10;41.40;;;;;;5082012;28;20084;-40
2024/03/01 06:03:05;;;;;;;0.52;0.50;;;22.10;41.20;;;;;;5063498;28;20048;-38
2024/03/01 06:05:31;;;;;;;0.57;0.52;;;22.10;41.20;;;;;;5078058;28;20098;-39
2024/03/01 06:07:58;;;;;;;1.98;0.50;;;22.00;41.10;;;;;;5066368;28;20052;-40
2024/03/01 06:10:24;;;;;;;0.68;0.43;;;22.10;41.20;;;;;;5060391;28;20025;-40
2024/03/01 06:12:50;;;;;;;0.95;0.60;;;22.10;41.30;;;;;;5062011;28;20832;-40
2024/03/01 06:15:16;;;;;;;0.82;0.60;;;22.10;41.20;;;;;;5060735;28;20552;-40
2024/03/01 06:17:42;;;;;;;0.82;0.50;;;22.10;41.20;;;;;;5059371;28;20044;-43
2024/03/01 06:20:09;;;;;;;0.60;0.55;;;22.10;41.10;;;;;;5056824;28;20505;-40
2024/03/01 06:22:35;;;;;;;0.82;0.60;;;22.10;41.10;;;;;;5062322;28;20029;-37
2024/03/01 06:25:01;;;;;;;1.08;0.70;;;22.10;41.20;;;;;;5061928;28;20597;-38
2024/03/01 06:27:27;;;;;;;0.60;0.50;;;22.10;41.30;;;;;;5060557;28;20033;-39
2024/03/01 06:29:53;;;;;;;0.80;0.60;;;22.10;41.30;;;;;;5061723;28;20029;-40
2024/03/01 06:32:19;;;;;;;0.77;0.57;;;22.10;41.20;;;;;;5060951;28;20025;-38
2024/03/01 06:34:49;;;;;;;0.75;0.50;;;22.10;41.20;;;;;;5059344;28;20055;-41
2024/03/01 06:37:16;;;;;;;1.17;0.60;;;22.10;41.20;;;;;;5060935;28;20029;-39
2024/03/01 06:39:42;;;;;;;;;;;22.10;41.40;;;;;;5060712;28;20389;-37
2024/03/01 06:42:08;;;;;;;0.88;0.50;;;22.10;41.40;;;;;;5057128;28;19976;-40
2024/03/01 06:44:34;;;;;;;0.80;0.50;;;22.10;41.40;;;;;;5044183;28;20127;-39
2024/03/01 06:47:00;;;;;;;0.90;0.60;;;22.10;41.30;;;;;;5026956;28;20025;-40
2024/03/01 06:49:27;;;;;;;0.60;0.60;;;22.00;41.20;;;;;;5046790;28;20029;-38
2024/03/01 06:51:53;;;;;;;0.60;0.43;;;22.00;41.20;;;;;;5049353;28;20032;-39
2024/03/01 06:54:19;;;;;;;0.88;0.57;;;22.10;41.40;;;;;;5048122;28;20151;-40
2024/03/01 06:56:46;;;;;;;0.68;0.40;;;22.10;41.40;;;;;;5044062;28;20665;-40
2024/03/01 06:59:12;;;;;;;0.68;0.52;;;22.10;41.40;;;;;;5048260;28;20033;-39
2024/03/01 07:01:39;;;;;;;0.53;0.40;;;22.10;41.30;;;;;;5050419;28;20071;-40
2024/03/01 07:04:06;;;;;;;0.50;0.50;;;22.10;41.30;;;;;;5053880;28;20304;-40
2024/03/01 07:06:32;;;;;;;0.63;0.47;;;22.00;41.30;;;;;;5049842;28;20033;-37
2024/03/01 07:09:03;;;;;;;0.65;0.45;;;22.00;41.30;;;;;;5049703;28;20045;-37
2024/03/01 07:11:30;;;;;;;1.05;0.50;;;22.10;41.40;;;;;;5049320;28;20063;-40
2024/03/01 07:13:57;;;;;;;1.30;0.60;;;22.10;41.40;;;;;;5050195;28;20029;-40
2024/03/01 07:16:23;;;;;;;1.00;0.80;;;22.10;41.40;;;;;;5049468;28;20029;-37
2024/03/01 07:18:49;;;;;;;0.60;0.60;;;22.10;41.40;;;;;;5050753;28;20030;-38
2024/03/01 07:21:15;;;;;;;0.70;0.57;;;22.00;41.20;;;;;;5051021;28;20044;-42
2024/03/01 07:23:41;;;;;;;1.60;0.80;;;22.00;41.20;;;;;;5050643;28;20041;-38
2024/03/01 07:26:08;;;;;;;0.65;0.60;;;22.10;41.40;;;;;;5051985;28;20081;-38
2024/03/01 07:28:34;;;;;;;0.80;0.60;;;22.10;41.40;;;;;;5046328;28;20025;-37
2024/03/01 07:31:00;;;;;;;0.60;0.50;;;22.10;41.40;;;;;;5047090;28;20033;-40
2024/03/01 07:33:26;;;;;;;0.63;0.50;;;22.10;41.30;;;;;;5051609;28;20135;-39
2024/03/01 07:35:52;;;;;;;0.70;0.50;;;22.00;41.80;;;;;;5048689;28;20097;-38
2024/03/01 07:38:18;;;;;;;0.80;0.60;;;22.00;41.30;;;;;;5049970;28;20055;-40
2024/03/01 07:40:44;;;;;;;0.80;0.50;;;22.10;41.40;;;;;;5052084;28;20458;-39
2024/03/01 07:43:11;;;;;;;1.10;0.57;;;22.10;41.40;;;;;;5042395;28;20029;-39
2024/03/01 07:45:37;;;;;;;0.57;0.47;;;22.10;41.50;;;;;;5051488;28;20482;-40
2024/03/01 07:48:04;;;;;;;0.83;0.60;;;22.10;41.40;;;;;;5047615;28;20040;-41
2024/03/01 07:50:30;;;;;;;0.85;0.55;;;22.00;41.30;;;;;;5051325;28;20778;-40
2024/03/01 07:52:58;;;;;;;0.70;0.60;;;22.00;41.30;;;;;;5041446;28;20033;-39
2024/03/01 07:55:24;;;;;;;0.57;0.47;;;22.10;41.50;;;;;;5034273;28;20039;-39
2024/03/01 07:57:50;;;;;;;1.05;0.75;;;22.10;41.50;;;;;;5048219;28;20052;-39
2024/03/01 08:00:16;;;;;;;0.95;0.60;;;22.10;41.40;;;;;;5047067;28;20569;-40
2024/03/01 08:02:43;;;;;;;0.90;0.65;;;22.10;41.50;;;;;;5052909;28;20096;-38
2024/03/01 08:05:10;;;;;;;0.67;0.53;;;22.00;41.30;;;;;;5051521;28;20056;-39
2024/03/01 08:07:36;;;;;;;0.70;0.47;;;22.00;41.30;;;;;;5030659;28;20037;-38
2024/03/01 08:10:05;;;;;;;0.75;0.52;;;22.10;41.40;;;;;;5050713;28;20037;-40
2024/03/01 08:12:31;;;;;;;0.75;0.60;;;22.10;41.50;;;;;;5040843;28;20022;-40
2024/03/01 08:14:57;;;;;;;0.75;0.50;;;22.10;41.40;;;;;;5053873;28;20029;-38
2024/03/01 08:17:23;;;;;;;0.80;0.70;;;22.10;41.40;;;;;;5049498;28;20052;-40
2024/03/01 08:19:50;;;;;;;1.25;0.80;;;22.00;41.30;;;;;;5031146;28;20033;-39
2024/03/01 08:22:17;;;;;;;0.77;0.60;;;22.00;41.30;;;;;;5053077;28;20029;-40
2024/03/01 08:24:45;;;;;;;;;;;22.10;41.50;;;;;;5053357;28;20042;-39
2024/03/01 08:27:11;;;;;;;0.80;0.60;;;22.10;41.50;;;;;;5053147;28;19913;-39
2024/03/01 08:29:37;;;;;;;0.85;0.70;;;22.10;41.50;;;;;;5051151;28;20043;-40
2024/03/01 08:32:04;;;;;;;0.82;0.70;;;22.10;41.40;;;;;;5050975;28;20050;-39
2024/03/01 08:34:47;;;;;;;0.60;0.60;;;22.00;41.40;;;;;;5032935;28;20097;-40
2024/03/01 08:37:23;;;;;;;1.20;0.90;;;22.00;41.30;;;;;;5021541;28;20045;-41
2024/03/01 08:39:49;;;;;;;1.20;0.93;;;22.10;41.50;;;;;;5035836;28;20018;-41
2024/03/01 08:42:15;;;;;;;1.23;0.80;;;22.10;41.50;;;;;;5051745;28;20041;-41
2024/03/01 08:44:53;;;;;;;2.65;1.00;;;22.10;41.50;;;;;;5055213;28;20041;-40
2024/03/01 08:47:27;;;;;;;0.77;0.70;;;22.10;41.50;;;;;;5063000;28;20029;-40
2024/03/01 08:49:53;;;;;;;1.10;0.80;;;22.00;41.40;;;;;;5063396;28;20037;-43
2024/03/01 08:52:35;;;;;;;1.25;0.80;;;22.10;41.60;;;;;;5063377;28;20080;-41
2024/03/01 08:55:16;;;;;;;1.00;0.82;;;22.10;41.60;;;;;;5063661;28;20044;-39
2024/03/01 08:57:43;;;;;;;1.40;0.90;;;22.10;41.70;;;;;;5057581;28;20056;-45
2024/03/01 09:00:37;;;;;;;1.23;0.90;;;22.10;41.60;;;;;;5044838;28;20037;-41
2024/03/01 09:03:04;;;;;;;1.20;0.70;;;22.00;41.50;;;;;;5056535;28;20036;-40
2024/03/01 09:05:30;;;;;;;1.35;1.10;;;22.10;41.60;;;;;;5061320;28;20059;-40
2024/03/01 09:08:00;;;;;;;1.10;0.80;;;22.10;41.70;;;;;;5056811;28;20037;-41
2024/03/01 09:10:28;;;;;;;1.00;0.82;;;22.10;41.80;;;;;;5036632;28;20084;-39
2024/03/01 09:12:54;;;;;;;1.38;1.05;;;22.10;41.80;;;;;;5055953;28;20032;-40
2024/03/01 09:15:24;;;;;;;1.45;1.10;;;22.10;41.80;;;;;;5056435;28;20037;-40
2024/03/01 09:17:51;;;;;;;1.90;1.20;;;22.00;41.70;;;;;;5062883;28;20028;-40
2024/03/01 09:20:30;;;;;;;2.65;1.00;;;22.00;41.70;;;;;;5044112;28;20029;-39
2024/03/01 09:22:56;;;;;;;1.30;1.10;;;22.10;41.90;;;;;;5062891;28;20614;-40
2024/03/01 09:25:40;;;;;;;1.25;1.13;;;22.10;41.90;;;;;;5062042;28;20033;-40
2024/03/01 09:28:07;;;;;;;1.30;1.00;;;22.10;41.90;;;;;;5062197;28;20036;-37
2024/03/01 09:30:33;;;;;;;1.20;0.80;;;22.10;41.80;;;;;;5044820;28;20025;-41
2024/03/01 09:33:00;;;;;;;1.58;1.00;;;22.00;41.80;;;;;;5062839;28;20029;-41
2024/03/01 09:35:26;;;;;;;1.35;0.82;;;22.00;41.80;;;;;;5058302;28;20025;-40
2024/03/01 09:37:53;;;;;;;1.05;0.85;;;22.10;41.90;;;;;;5062779;28;20056;-39
2024/03/01 09:40:31;;;;;;;1.70;1.33;;;22.10;41.90;;;;;;5061738;28;20029;-41
2024/03/01 09:43:04;;;;;;;1.70;1.13;;;22.10;41.90;;;;;;5054860;28;20064;-41
2024/03/01 09:45:51;;;;;;;1.60;1.17;;;22.10;41.80;;;;;;5044918;28;20035;-40
2024/03/01 09:48:38;;;;;;;1.27;0.90;;;22.10;41.80;;;;;;5061285;28;20551;-39
2024/03/01 09:51:07;;;;;;;1.40;1.10;;;22.00;41.70;;;;;;5061695;28;20033;-40
2024/03/01 09:53:57;;;;;;;1.23;0.90;;;22.10;41.90;;;;;;5057666;28;20029;-40
2024/03/01 09:56:55;;;;;;;1.50;1.10;;;22.10;41.90;;;;;;5043249;28;20036;-40
2024/03/01 09:59:48;;;;;;;2.00;1.08;;;22.10;41.80;;;;;;5062055;28;20048;-37
2024/03/01 10:02:53;;;;;;;1.58;1.20;;;22.10;41.80;;;;;;5061267;28;20044;-41
2024/03/01 10:05:33;;;;;;;1.30;1.10;;;22.00;41.70;;;;;;4978831;28;20038;-40
2024/03/01 10:08:08;;;;;;;1.20;1.10;;;22.10;41.70;;;;;;4980114;28;20058;-40
2024/03/01 10:11:18;;;;;;;1.83;1.52;;;22.10;41.70;;;;;;4980188;28;20035;-43
2024/03/01 10:13:48;;;;;;;1.88;1.10;;;22.10;41.70;;;;;;4975012;28;20034;-40
2024/03/01 10:16:36;;;;;;;1.35;1.10;;;22.10;41.70;;;;;;4978804;28;20035;-40
2024/03/01 10:19:26;;;;;;;1.42;1.27;;;22.00;41.60;;;;;;4966874;28;20479;-40
2024/03/01 10:22:24;;;;;;;1.27;1.17;;;22.00;41.60;;;;;;4975217;28;20066;-46
2024/03/01 10:24:59;;;;;;;2.15;1.33;;;22.10;41.60;;;;;;4951950;28;20669;-39
2024/03/01 10:27:34;;;;;;;1.85;1.52;;;22.10;41.60;;;;;;4980001;28;20039;-42
2024/03/01 10:30:11;;;;;;;1.30;1.20;;;22.10;41.50;;;;;;4978558;28;20079;-41
2024/03/01 10:32:37;;;;;;;1.92;1.52;;;22.00;41.40;;;;;;4957529;28;20038;-41
2024/03/01 10:35:09;;;;;;;1.40;1.30;;;22.00;41.50;;;;;;4982807;28;20037;-40
2024/03/01 10:37:57;;;;;;;1.50;1.33;;;22.10;41.60;;;;;;5054883;28;20040;-38
2024/03/01 10:40:23;;;;;;;2.50;1.38;;;22.10;41.60;;;;;;5061215;28;20031;-41
2024/03/01 10:43:03;;;;;;;2.22;1.70;;;22.10;41.60;;;;;;5061599;28;20029;-40
2024/03/01 10:45:58;;;;;;;1.77;1.30;;;22.00;41.40;;;;;;5044048;28;20037;-40
2024/03/01 10:48:24;;;;;;;2.20;1.70;;;22.00;41.40;;;;;;5060925;28;20031;-40
2024/03/01 10:50:57;;;;;;;2.83;1.73;;;22.00;41.40;;;;;;5043281;28;20028;-39
2024/03/01 10:53:33;;;;;;;1.63;1.52;;;22.00;41.40;;;;;;5061298;28;20029;-38
2024/03/01 10:56:08;;;;;;;1.75;1.63;;;22.10;41.50;;;;;;5028387;28;20033;-40
2024/03/01 10:58:39;;;;;;;2.15;1.90;;;22.00;41.40;;;;;;5036975;28;20092;-39
2024/03/01 11:01:18;;;;;;;2.58;2.20;;;22.00;41.40;;;;;;5040863;28;20036;-38
2024/03/01 11:03:50;;;;;;;2.10;1.90;;;22.00;41.40;;;;;;5061025;28;20087;-40
2024/03/01 11:06:53;;;;;;;1.75;1.63;;;22.00;41.50;;;;;;5060121;28;20036;-38
2024/03/01 11:09:25;;;;;;;2.40;1.80;;;22.00;41.50;;;;;;5060593;28;20084;-40
2024/03/01 11:12:21;;;;;;;2.75;2.13;;;22.00;41.40;;;;;;5061269;28;20025;-40
2024/03/01 11:15:13;;;;;;;2.25;1.83;;;22.00;41.40;;;;;;5055384;28;20037;-41
2024/03/01 11:17:41;;;;;;;2.05;1.63;;;21.90;41.40;;;;;;5052894;28;20044;-40
2024/03/01 11:20:13;;;;;;;2.53;1.85;;;22.00;41.50;;;;;;5042236;28;20039;-41
2024/03/01 11:22:47;;;;;;;2.17;1.98;;;22.00;41.60;;;;;;5033832;28;20052;-40
2024/03/01 11:25:19;;;;;;;2.95;1.90;;;22.00;41.60;;;;;;5041656;28;20041;-38
2024/03/01 11:27:59;;;;;;;2.20;1.58;;;22.00;41.50;;;;;;5061578;28;20033;-39
2024/03/01 11:30:28;;;;;;;2.22;2.03;;;21.90;41.50;;;;;;5061235;28;20021;-40
2024/03/01 11:33:03;;;;;;;2.05;1.80;;;21.90;41.60;;;;;;5045088;28;20162;-38
2024/03/01 11:35:51;;;;;;;1.80;1.60;;;22.00;41.60;;;;;;5046295;28;20699;-40
2024/03/01 11:38:26;;;;;;;2.42;1.95;;;22.00;41.60;;;;;;5061389;28;20050;-41
2024/03/01 11:41:15;;;;;;;1.88;1.42;;;22.00;41.60;;;;;;5062022;28;20060;-42
2024/03/01 11:44:29;;;;;;;2.17;1.77;;;21.90;41.50;;;;;;5058625;28;20583;-39
2024/03/01 11:47:11;;;;;;;2.83;1.90;;;21.90;41.60;;;;;;4981613;28;20034;-40
2024/03/01 11:50:09;;;;;;;2.13;1.80;;;22.00;41.70;;;;;;4983131;28;20030;-40
2024/03/01 11:52:53;;;;;;;2.03;1.58;;;22.00;41.70;;;;;;4970942;28;20098;-40
2024/03/01 11:55:46;;;;;;;1.80;1.50;;;22.00;41.70;;;;;;4983425;28;20135;-40
2024/03/01 11:58:27;;;;;;;2.00;1.70;;;22.00;41.60;;;;;;4963723;28;20106;-40
2024/03/01 12:01:10;;;;;;;1.77;1.67;;;21.90;41.60;;;;;;4983233;28;20041;-39
2024/03/01 12:04:03;;;;;;;2.40;1.80;;;21.90;41.60;;;;;;4977498;28;20039;-42
2024/03/01 12:06:45;;;;;;;1.90;1.70;;;22.00;41.70;;;;;;4975536;28;20484;-41
2024/03/01 12:09:14;;;;;;;2.47;1.85;;;22.00;41.80;;;;;;4967481;28;20214;-40
2024/03/01 12:12:15;;;;;;;2.15;1.95;;;21.90;41.60;;;;;;4983436;28;20023;-42
2024/03/01 12:15:17;;;;;;;2.78;1.88;;;21.90;41.70;;;;;;4984467;28;20042;-40
2024/03/01 12:18:02;;;;;;;5.78;2.33;;;22.00;42.40;;;;;;4963375;28;20103;-37
2024/03/01 12:20:30;;;;;;;7.75;2.83;;;22.00;43.60;;;;;;4974861;28;20050;-40
2024/03/01 12:23:22;;;;;;;9.80;2.88;;;22.00;44.50;;;;;;5000797;28;20827;-42
2024/03/01 12:25:48;;;;;;;8.18;2.90;;;22.00;44.80;;;;;;4992936;28;20046;-40
2024/03/01 12:28:26;;;;;;;5.43;3.13;;;22.00;45.20;;;;;;4975560;28;20070;-40
2024/03/01 12:31:12;;;;;;;;;;;22.00;45.50;;;;;;4980971;28;20035;-41
2024/03/01 12:33:38;;;;;;;7.05;2.30;;;22.00;46.10;;;;;;4993860;28;19984;-40
2024/03/01 12:36:28;;;;;;;8.45;2.58;;;22.00;46.80;;;;;;5001114;28;20041;-38
2024/03/01 12:39:02;;;;;;;6.82;2.42;;;22.00;46.00;;;;;;4990449;28;20039;-40
2024/03/01 12:41:53;;;;;;;5.13;2.45;;;22.10;45.40;;;;;;4986127;28;20034;-39
2024/03/01 12:44:56;;;;;;;10.18;2.50;;;22.10;45.40;;;;;;4999776;28;20038;-39
2024/03/01 12:47:50;;;;;;;4.95;2.35;;;22.00;46.20;;;;;;5001215;28;21790;-39
2024/03/01 12:51:05;;;;;;;5.32;2.40;;;22.00;45.40;;;;;;4996223;28;20034;-42
2024/03/01 12:54:07;;;;;;;4.15;2.10;;;21.90;45.10;;;;;;5020315;28;20075;-41
2024/03/01 12:56:52;;;;;;;4.97;2.50;;;22.00;44.80;;;;;;5056472;28;20405;-41
2024/03/01 12:59:25;;;;;;;6.13;2.58;;;22.00;44.70;;;;;;5059469;28;20098;-42
2024/03/01 13:02:25;;;;;;;4.70;2.50;;;22.00;44.90;;;;;;5063508;28;20029;-41
2024/03/01 13:04:59;;;;;;;5.13;2.58;;;22.00;45.10;;;;;;5054554;28;20037;-40
2024/03/01 13:07:25;;;;;;;5.43;2.85;;;22.00;45.20;;;;;;5067624;28;20045;-41